createdAt,value
2019-03-15T00:01:40.175Z,77.40
2019-03-15T00:04:08.653Z,76.90
2019-03-15T00:06:37.227Z,76.80
2019-03-15T00:09:08.343Z,76.50
2019-03-15T00:11:36.923Z,76.40
2019-03-15T00:14:05.713Z,76.00
2019-03-15T00:16:34.256Z,75.90
2019-03-15T00:19:02.777Z,76.20
2019-03-15T00:21:31.359Z,76.20
2019-03-15T00:23:59.811Z,76.20
2019-03-15T00:26:28.262Z,76.40
2019-03-15T00:28:56.767Z,76.90
2019-03-15T00:31:25.297Z,77.20
2019-03-15T00:33:53.769Z,77.50
2019-03-15T00:36:22.259Z,77.50
2019-03-15T00:38:50.707Z,77.60
2019-03-15T00:41:19.580Z,77.80
2019-03-15T00:43:49.555Z,77.60
2019-03-15T00:46:18.252Z,77.80
2019-03-15T00:48:46.703Z,77.70
2019-03-15T00:51:15.187Z,77.90
2019-03-15T00:53:43.648Z,78.20
2019-03-15T00:56:12.513Z,78.10
2019-03-15T00:58:41.001Z,78.20
2019-03-15T01:01:10.189Z,77.70
2019-03-15T01:03:39.054Z,78.10
2019-03-15T01:06:07.566Z,78.20
2019-03-15T01:08:36.048Z,78.60
2019-03-15T01:11:04.583Z,78.70
2019-03-15T01:13:33.188Z,79.50
2019-03-15T01:16:02.104Z,80.30
2019-03-15T01:18:30.652Z,80.60
2019-03-15T01:20:59.181Z,81.00
2019-03-15T01:23:27.668Z,81.60
2019-03-15T01:25:56.133Z,81.80
2019-03-15T01:28:24.618Z,82.30
2019-03-15T01:30:53.444Z,82.60
2019-03-15T01:33:21.903Z,83.10
2019-03-15T01:35:50.396Z,83.30
2019-03-15T01:38:18.846Z,83.70
2019-03-15T01:40:48.894Z,84.20
2019-03-15T01:43:17.654Z,84.30
2019-03-15T01:45:46.510Z,84.20
2019-03-15T01:48:14.966Z,84.30
2019-03-15T01:50:43.458Z,84.30
2019-03-15T01:53:11.905Z,84.10
2019-03-15T01:55:40.627Z,84.10
2019-03-15T01:58:09.183Z,83.60
2019-03-15T02:00:38.618Z,83.80
2019-03-15T02:03:07.440Z,82.90
2019-03-15T02:05:35.927Z,82.50
2019-03-15T02:08:04.457Z,82.70
2019-03-15T02:10:32.921Z,83.10
2019-03-15T02:13:02.268Z,83.40
2019-03-15T02:15:31.170Z,83.70
2019-03-15T02:17:59.736Z,84.50
2019-03-15T02:20:28.592Z,85.00
2019-03-15T02:22:57.061Z,85.10
2019-03-15T02:25:25.531Z,84.90
2019-03-15T02:27:54.356Z,85.00
2019-03-15T02:30:23.087Z,84.70
2019-03-15T02:32:51.536Z,85.80
2019-03-15T02:35:20.235Z,86.30
2019-03-15T02:37:49.304Z,86.70
2019-03-15T02:40:17.776Z,88.40
2019-03-15T02:42:46.348Z,86.80
2019-03-15T02:45:15.152Z,86.70
2019-03-15T02:47:44.018Z,87.50
2019-03-15T02:50:12.577Z,87.90
2019-03-15T02:52:42.349Z,88.20
2019-03-15T02:55:11.387Z,88.60
2019-03-15T02:57:40.331Z,88.40
2019-03-15T03:00:09.996Z,88.50
2019-03-15T03:02:38.465Z,88.20
2019-03-15T03:05:09.464Z,88.90
2019-03-15T03:07:37.998Z,89.70
2019-03-15T03:10:08.504Z,89.60
2019-03-15T03:12:37.338Z,90.30
2019-03-15T03:15:07.410Z,90.40
2019-03-15T03:17:35.952Z,90.40
2019-03-15T03:20:06.813Z,91.10
2019-03-15T03:22:36.424Z,91.50
2019-03-15T03:25:07.379Z,91.60
2019-03-15T03:27:35.954Z,92.00
2019-03-15T03:30:06.548Z,92.10
2019-03-15T03:32:35.007Z,92.50
2019-03-15T03:35:04.488Z,92.80
2019-03-15T03:37:33.334Z,93.10
2019-03-15T03:40:02.380Z,92.90
2019-03-15T03:42:31.485Z,92.60
2019-03-15T03:45:00.104Z,92.60
2019-03-15T03:47:28.681Z,93.10
2019-03-15T03:49:57.183Z,93.60
2019-03-15T03:52:26.043Z,94.00
2019-03-15T03:54:54.608Z,94.30
2019-03-15T03:57:23.275Z,94.10
2019-03-15T03:59:51.762Z,94.10
2019-03-15T04:02:20.383Z,94.20
2019-03-15T04:04:48.972Z,94.20
2019-03-15T04:07:17.569Z,94.00
2019-03-15T04:09:46.083Z,94.30
2019-03-15T04:12:14.580Z,94.30
2019-03-15T04:14:43.054Z,94.40
2019-03-15T04:17:11.964Z,94.30
2019-03-15T04:19:40.478Z,94.60
2019-03-15T04:22:09.008Z,94.90
2019-03-15T04:24:37.474Z,95.00
2019-03-15T04:27:06.041Z,95.20
2019-03-15T04:29:34.506Z,95.50
2019-03-15T04:32:02.965Z,95.60
2019-03-15T04:34:31.750Z,95.60
2019-03-15T04:37:00.250Z,95.60
2019-03-15T04:39:28.709Z,95.30
2019-03-15T04:41:57.214Z,95.30
2019-03-15T04:44:25.676Z,95.40
2019-03-15T04:46:54.140Z,95.10
2019-03-15T04:49:22.638Z,95.00
2019-03-15T04:51:51.137Z,95.00
2019-03-15T04:54:19.732Z,95.10
2019-03-15T04:56:48.310Z,95.00
2019-03-15T04:59:16.841Z,94.90
2019-03-15T05:01:45.954Z,95.00
2019-03-15T05:04:14.459Z,94.90
2019-03-15T05:06:42.966Z,94.80
2019-03-15T05:09:11.418Z,94.80
2019-03-15T05:11:40.286Z,94.80
2019-03-15T05:14:08.752Z,94.70
2019-03-15T05:16:37.311Z,94.80
2019-03-15T05:19:05.920Z,94.80
2019-03-15T05:21:34.716Z,94.80
2019-03-15T05:24:03.506Z,94.80
2019-03-15T05:26:32.334Z,94.90
2019-03-15T05:29:01.284Z,94.90
2019-03-15T05:31:30.184Z,94.90
2019-03-15T05:33:58.748Z,94.90
2019-03-15T05:36:28.392Z,94.90
2019-03-15T05:38:57.151Z,94.80
2019-03-15T05:41:25.745Z,94.90
2019-03-15T05:43:54.244Z,94.80
2019-03-15T05:46:22.747Z,94.80
2019-03-15T05:48:51.533Z,94.70
2019-03-15T05:51:20.037Z,94.50
2019-03-15T05:53:48.521Z,94.40
2019-03-15T05:56:17.031Z,94.30
2019-03-15T05:58:45.510Z,94.30
2019-03-15T06:01:14.059Z,94.10
2019-03-15T06:03:48.506Z,94.00
2019-03-15T06:06:12.805Z,94.00
2019-03-15T06:08:41.858Z,93.90
2019-03-15T06:11:10.388Z,93.80
2019-03-15T06:13:38.943Z,93.70
2019-03-15T06:16:07.459Z,93.60
2019-03-15T06:18:37.192Z,93.60
2019-03-15T06:21:05.811Z,93.50
2019-03-15T06:23:34.404Z,93.60
2019-03-15T06:26:02.985Z,93.60
2019-03-15T06:28:31.560Z,93.60
2019-03-15T06:31:00.069Z,93.60
2019-03-15T06:33:29.003Z,93.70
2019-03-15T06:35:57.817Z,93.70
2019-03-15T06:38:26.299Z,93.60
2019-03-15T06:40:54.817Z,93.60
2019-03-15T06:43:23.289Z,93.50
2019-03-15T06:45:51.781Z,93.50
2019-03-15T06:48:20.275Z,93.60
2019-03-15T06:50:48.779Z,93.50
2019-03-15T06:53:17.251Z,93.80
2019-03-15T06:55:46.073Z,93.60
2019-03-15T06:58:14.642Z,93.60
2019-03-15T07:00:43.295Z,93.40
2019-03-15T07:03:12.955Z,93.50
2019-03-15T07:05:41.675Z,93.30
2019-03-15T07:08:10.175Z,93.30
2019-03-15T07:10:38.757Z,93.30
2019-03-15T07:13:07.298Z,93.40
2019-03-15T07:15:36.547Z,93.40
2019-03-15T07:18:05.541Z,93.20
2019-03-15T07:20:34.042Z,93.10
2019-03-15T07:23:02.629Z,93.10
2019-03-15T07:25:31.197Z,93.20
2019-03-15T07:27:59.778Z,93.10
2019-03-15T07:30:28.271Z,93.00
2019-03-15T07:32:56.790Z,93.00
2019-03-15T07:35:25.330Z,92.80
2019-03-15T07:37:53.980Z,93.00
2019-03-15T07:40:24.185Z,93.00
2019-03-15T07:42:52.765Z,93.00
2019-03-15T07:45:21.557Z,93.20
2019-03-15T07:47:50.426Z,93.30
2019-03-15T07:50:19.095Z,93.20
2019-03-15T07:52:47.881Z,93.10
2019-03-15T07:55:17.464Z,93.30
2019-03-15T07:57:46.561Z,93.20
2019-03-15T08:00:17.932Z,93.30
2019-03-15T08:02:46.618Z,93.20
2019-03-15T08:05:15.220Z,93.10
2019-03-15T08:07:45.641Z,93.10
2019-03-15T08:10:14.328Z,93.10
2019-03-15T08:12:42.947Z,92.80
2019-03-15T08:15:15.117Z,92.80
2019-03-15T08:17:45.302Z,92.80
2019-03-15T08:20:15.085Z,92.90
2019-03-15T08:22:43.719Z,92.70
2019-03-15T08:25:13.097Z,92.70
2019-03-15T08:27:41.774Z,92.70
2019-03-15T08:30:15.368Z,92.60
2019-03-15T08:32:44.328Z,92.50
2019-03-15T08:35:13.755Z,92.40
2019-03-15T08:37:42.442Z,92.30
2019-03-15T08:40:15.289Z,92.30
2019-03-15T08:42:44.346Z,92.30
2019-03-15T08:45:17.998Z,92.20
2019-03-15T08:47:46.583Z,92.20
2019-03-15T08:50:16.569Z,92.10
2019-03-15T08:52:45.347Z,92.10
2019-03-15T08:55:14.512Z,91.90
2019-03-15T08:57:43.260Z,92.10
2019-03-15T09:00:13.948Z,91.90
2019-03-15T09:02:42.920Z,92.00
2019-03-15T09:05:13.621Z,91.70
2019-03-15T09:07:42.196Z,91.70
2019-03-15T09:10:22.403Z,91.60
2019-03-15T09:12:43.008Z,91.80
2019-03-15T09:15:13.204Z,91.60
2019-03-15T09:17:41.924Z,91.80
2019-03-15T09:20:15.403Z,91.50
2019-03-15T09:22:44.493Z,91.50
2019-03-15T09:25:19.937Z,91.50
2019-03-15T09:27:46.388Z,91.40
2019-03-15T09:30:23.324Z,91.30
2019-03-15T09:32:46.440Z,91.20
2019-03-15T09:35:15.208Z,91.20
2019-03-15T09:37:47.034Z,91.20
2019-03-15T09:40:16.660Z,91.00
2019-03-15T09:42:45.640Z,91.00
2019-03-15T09:45:18.229Z,90.90
2019-03-15T09:47:47.318Z,91.00
2019-03-15T09:50:26.594Z,90.80
2019-03-15T14:07:27.916Z,90.80
2019-03-15T14:09:59.180Z,91.20
2019-03-15T14:12:27.657Z,91.80
2019-03-15T14:14:56.212Z,91.80
2019-03-15T14:17:24.747Z,92.10
2019-03-15T14:19:53.228Z,92.30
2019-03-15T14:22:21.753Z,92.10
2019-03-15T14:24:50.237Z,92.00
2019-03-15T14:27:19.010Z,92.20
2019-03-15T14:29:47.553Z,92.20
2019-03-15T14:32:16.075Z,92.40
2019-03-15T14:34:44.801Z,92.30
2019-03-15T14:37:13.461Z,92.20
2019-03-15T14:39:42.057Z,92.30
2019-03-15T14:42:10.576Z,92.10
2019-03-15T14:44:39.316Z,91.90
2019-03-15T14:47:09.260Z,92.10
2019-03-15T14:49:38.650Z,92.10
2019-03-15T14:52:13.059Z,92.40
2019-03-15T14:54:42.447Z,92.80
2019-03-15T14:57:17.001Z,92.80
2019-03-15T14:59:46.281Z,93.10
2019-03-15T15:02:15.392Z,93.10
2019-03-15T15:04:43.941Z,93.40
2019-03-15T15:07:14.343Z,93.30
2019-03-15T15:09:43.337Z,93.50
2019-03-15T15:12:12.113Z,93.30
2019-03-15T15:14:41.204Z,93.60
2019-03-15T15:17:09.917Z,93.50
2019-03-15T15:19:40.519Z,93.40
2019-03-15T15:22:10.733Z,93.40
2019-03-15T15:24:39.394Z,93.50
2019-03-15T15:27:10.211Z,93.70
2019-03-15T15:29:38.712Z,93.60
2019-03-15T15:32:07.230Z,93.70
2019-03-15T15:34:36.289Z,93.50
2019-03-15T15:37:06.074Z,93.60
2019-03-15T15:39:35.308Z,93.60
2019-03-15T15:42:06.467Z,93.70
2019-03-15T15:44:38.224Z,94.00
2019-03-15T15:47:11.537Z,94.00
2019-03-15T15:49:39.892Z,94.10
2019-03-15T15:52:12.700Z,94.10
2019-03-15T15:54:41.061Z,94.00
2019-03-15T15:57:18.247Z,93.80
2019-03-15T15:59:49.674Z,93.70
2019-03-15T16:02:20.109Z,93.70
2019-03-15T16:04:48.671Z,93.60
2019-03-15T16:07:17.274Z,93.70
2019-03-15T16:10:04.937Z,93.60
2019-03-15T16:12:18.741Z,93.40
2019-03-15T16:14:54.998Z,93.40
2019-03-15T16:17:23.611Z,93.40
2019-03-15T16:19:54.447Z,93.40
2019-03-15T16:22:26.378Z,93.20
2019-03-15T16:24:55.016Z,93.00
2019-03-15T16:27:26.059Z,92.80
2019-03-15T16:29:54.624Z,92.70
2019-03-15T16:32:23.790Z,92.50
2019-03-15T16:34:54.292Z,92.40
2019-03-15T16:37:22.824Z,92.20
2019-03-15T16:39:51.467Z,92.20
2019-03-15T16:42:22.814Z,92.20
2019-03-15T16:44:51.420Z,92.10
2019-03-15T16:47:21.244Z,92.00
2019-03-15T16:49:52.762Z,92.60
2019-03-15T16:52:21.882Z,92.30
2019-03-15T16:54:50.565Z,92.50
2019-03-15T16:57:19.214Z,92.70
2019-03-15T16:59:49.290Z,92.70
2019-03-15T17:02:18.129Z,92.50
2019-03-15T17:04:46.890Z,92.50
2019-03-15T17:07:18.556Z,92.40
2019-03-15T17:09:48.441Z,92.50
2019-03-15T17:12:17.672Z,92.30
2019-03-15T17:14:48.054Z,92.60
2019-03-15T17:17:16.906Z,92.50
2019-03-15T17:19:45.675Z,92.60
2019-03-15T17:22:18.926Z,92.60
2019-03-15T17:24:47.760Z,92.50
2019-03-15T17:27:16.284Z,92.50
2019-03-15T17:29:44.975Z,92.60
2019-03-15T17:32:13.782Z,92.50
2019-03-15T17:34:47.216Z,92.50
2019-03-15T17:37:17.738Z,92.30
2019-03-15T17:39:50.377Z,92.40
2019-03-15T17:42:18.562Z,92.10
2019-03-15T17:44:47.367Z,92.10
2019-03-15T17:47:15.904Z,92.10
2019-03-15T17:49:46.186Z,92.10
2019-03-15T17:52:15.032Z,92.10
2019-03-15T17:54:43.658Z,92.10
2019-03-15T17:57:12.340Z,92.20
2019-03-15T17:59:41.051Z,92.00
2019-03-15T18:02:10.268Z,92.00
2019-03-15T18:04:38.969Z,91.80
2019-03-15T18:07:09.747Z,91.90
2019-03-15T18:09:38.143Z,91.90
2019-03-15T18:12:06.767Z,91.90
2019-03-15T18:14:37.370Z,91.90
2019-03-15T18:17:06.270Z,91.90
2019-03-15T18:19:34.772Z,91.80
2019-03-15T18:22:05.752Z,91.80
2019-03-15T18:24:42.999Z,91.80
2019-03-15T18:27:07.620Z,91.90
2019-03-15T18:29:36.485Z,91.80
2019-03-15T18:32:09.940Z,91.90
2019-03-15T18:34:38.824Z,92.20
2019-03-15T18:37:07.753Z,92.40
2019-03-15T18:39:37.860Z,92.60
2019-03-15T18:42:10.309Z,92.50
2019-03-15T18:44:39.062Z,92.70
2019-03-15T18:47:11.516Z,92.80
2019-03-15T18:50:11.049Z,92.90
2019-03-15T18:52:39.860Z,92.90
2019-03-15T18:55:11.168Z,93.10
2019-03-15T18:57:40.265Z,93.10
2019-03-15T19:00:11.941Z,93.20
2019-03-15T19:02:40.625Z,93.20
2019-03-15T19:05:10.178Z,93.30
2019-03-15T19:07:38.880Z,93.50
2019-03-15T19:10:09.848Z,93.60
2019-03-15T19:12:38.500Z,93.60
2019-03-15T19:15:10.036Z,93.50
2019-03-15T19:17:38.674Z,93.30
2019-03-15T19:20:09.901Z,93.20
2019-03-15T19:22:38.515Z,93.20
2019-03-15T19:25:09.946Z,93.00
2019-03-15T19:27:38.469Z,93.00
2019-03-15T19:30:12.595Z,92.70
2019-03-15T19:32:43.069Z,92.60
2019-03-15T19:35:11.775Z,92.40
2019-03-15T19:37:40.519Z,92.50
2019-03-15T19:40:20.156Z,92.40
2019-03-15T19:42:49.037Z,92.40
2019-03-15T19:45:18.158Z,92.40
2019-03-15T19:47:46.757Z,92.30
2019-03-15T19:50:22.770Z,92.10
2019-03-15T19:52:51.342Z,92.00
2019-03-15T19:55:19.988Z,92.00
2019-03-15T19:57:48.686Z,91.90
2019-03-15T20:00:23.345Z,91.90
2019-03-15T20:02:51.920Z,91.90
2019-03-15T20:05:20.615Z,91.90
2019-03-15T20:07:49.406Z,91.90
2019-03-15T20:10:18.249Z,91.90
2019-03-15T20:12:46.976Z,92.00
2019-03-15T20:15:16.984Z,92.10
2019-03-15T20:17:45.639Z,92.30
2019-03-15T20:20:17.354Z,92.30
2019-03-15T20:22:46.075Z,92.20
2019-03-15T20:25:28.311Z,92.00
2019-03-15T20:27:56.939Z,92.00
2019-03-15T20:30:26.920Z,91.90
2019-03-15T20:32:58.991Z,91.90
2019-03-15T20:35:27.583Z,92.30
2019-03-15T20:37:59.169Z,92.00
2019-03-15T20:40:27.702Z,92.20
2019-03-15T20:42:57.897Z,92.30
2019-03-15T20:45:31.305Z,92.30
2019-03-15T20:48:00.145Z,92.40
2019-03-15T20:50:28.959Z,92.50
2019-03-15T20:53:08.611Z,92.70
2019-03-15T20:55:29.593Z,92.70
2019-03-15T20:58:02.906Z,92.70
2019-03-15T21:00:35.883Z,92.80
2019-03-15T21:03:03.459Z,92.70
2019-03-15T21:05:33.714Z,92.80
2019-03-15T21:08:02.719Z,92.70
2019-03-15T21:10:38.010Z,92.60
2019-03-15T21:13:12.238Z,92.40
2019-03-15T21:15:40.887Z,92.40
2019-03-15T21:18:09.473Z,92.50
2019-03-15T21:20:40.902Z,92.40
2019-03-15T21:23:10.145Z,92.50
2019-03-15T21:25:40.424Z,92.40
2019-03-15T21:28:10.885Z,92.40
2019-03-15T21:30:48.303Z,92.80
2019-03-15T21:33:11.554Z,92.60
2019-03-15T21:35:42.420Z,92.60
2019-03-15T21:38:12.371Z,92.60
2019-03-15T21:40:43.670Z,92.50
2019-03-15T21:43:12.281Z,92.50
2019-03-15T21:45:41.078Z,92.50
2019-03-15T21:48:17.719Z,92.50
2019-03-15T21:50:46.287Z,92.60
2019-03-15T21:53:16.542Z,92.60
2019-03-15T21:55:45.152Z,92.70
2019-03-15T21:58:13.743Z,92.90
2019-03-15T22:00:46.237Z,92.90
2019-03-15T22:03:14.924Z,93.20
2019-03-15T22:05:43.961Z,93.40
2019-03-15T22:08:12.662Z,93.70
2019-03-15T22:10:41.269Z,93.90
2019-03-15T22:13:11.639Z,94.00
2019-03-15T22:15:40.679Z,94.10
2019-03-15T22:18:09.435Z,94.10
2019-03-15T22:20:38.190Z,94.00
2019-03-15T22:23:06.821Z,94.10
2019-03-15T22:25:35.497Z,94.00
2019-03-15T22:28:04.271Z,94.10
2019-03-15T22:30:32.794Z,94.10
2019-03-15T22:33:03.232Z,94.00
2019-03-15T22:35:31.961Z,94.10
2019-03-15T22:38:00.778Z,94.10
2019-03-15T22:40:29.508Z,94.10
2019-03-15T22:42:58.474Z,94.10
2019-03-15T22:45:27.209Z,94.40
2019-03-15T22:47:58.882Z,94.50
2019-03-15T22:50:27.600Z,94.50
2019-03-15T22:52:56.272Z,94.50
2019-03-15T22:55:24.897Z,94.50
2019-03-15T22:57:59.720Z,94.40
2019-03-15T23:00:25.882Z,94.50
2019-03-15T23:02:54.605Z,94.40
2019-03-15T23:05:23.287Z,94.50
2019-03-15T23:07:56.983Z,94.50
2019-03-15T23:10:26.554Z,94.50
2019-03-15T23:12:55.212Z,94.50
2019-03-15T23:15:23.807Z,94.30
2019-03-15T23:17:52.387Z,94.50
2019-03-15T23:20:22.645Z,94.30
2019-03-15T23:22:54.606Z,94.20
2019-03-15T23:25:21.696Z,94.10
2019-03-15T23:27:50.324Z,94.10
2019-03-15T23:30:18.952Z,94.00
2019-03-15T23:32:47.647Z,94.00
2019-03-15T23:35:16.257Z,93.70
2019-03-15T23:37:44.835Z,93.30
2019-03-15T23:40:14.383Z,94.00
2019-03-15T23:42:43.092Z,94.20
2019-03-15T23:45:14.635Z,93.50
2019-03-15T23:47:43.399Z,93.40
2019-03-15T23:50:13.625Z,93.70
2019-03-15T23:52:42.303Z,93.60
2019-03-15T23:55:11.191Z,93.10
2019-03-15T23:57:39.882Z,93.10
